sensor_id;sensor_type;location;lat;lon;timestamp;temperature;humidity
4556;DHT22;2290;48.674;9.018;2023-07-20T00:01:11;20.50;98.30
4556;DHT22;2290;48.674;9.018;2023-07-20T00:03:36;20.50;98.20
4556;DHT22;2290;48.674;9.018;2023-07-20T00:06:02;20.50;97.90
4556;DHT22;2290;48.674;9.018;2023-07-20T00:08:30;20.40;97.90
4556;DHT22;2290;48.674;9.018;2023-07-20T00:10:56;20.40;97.80
4556;DHT22;2290;48.674;9.018;2023-07-20T00:13:21;20.40;97.20
4556;DHT22;2290;48.674;9.018;2023-07-20T00:15:47;20.30;96.50
4556;DHT22;2290;48.674;9.018;2023-07-20T00:18:14;20.20;96.60
4556;DHT22;2290;48.674;9.018;2023-07-20T00:20:40;20.20;96.40
4556;DHT22;2290;48.674;9.018;2023-07-20T00:23:05;20.10;96.50
4556;DHT22;2290;48.674;9.018;2023-07-20T00:25:31;20.10;96.20
4556;DHT22;2290;48.674;9.018;2023-07-20T00:27:57;20.00;96.10
4556;DHT22;2290;48.674;9.018;2023-07-20T00:30:22;19.90;96.10
4556;DHT22;2290;48.674;9.018;2023-07-20T00:32:48;19.80;96.00
4556;DHT22;2290;48.674;9.018;2023-07-20T00:35:13;19.80;96.40
4556;DHT22;2290;48.674;9.018;2023-07-20T00:37:39;19.80;96.40
4556;DHT22;2290;48.674;9.018;2023-07-20T00:40:06;19.80;96.10
4556;DHT22;2290;48.674;9.018;2023-07-20T00:42:32;19.80;96.10
4556;DHT22;2290;48.674;9.018;2023-07-20T00:44:58;19.80;96.30
4556;DHT22;2290;48.674;9.018;2023-07-20T00:47:24;19.80;96.80
4556;DHT22;2290;48.674;9.018;2023-07-20T00:49:50;19.80;96.80
4556;DHT22;2290;48.674;9.018;2023-07-20T00:52:16;19.80;96.40
4556;DHT22;2290;48.674;9.018;2023-07-20T00:54:44;19.90;96.70
4556;DHT22;2290;48.674;9.018;2023-07-20T00:57:10;19.90;96.60
4556;DHT22;2290;48.674;9.018;2023-07-20T00:59:38;19.90;96.20
4556;DHT22;2290;48.674;9.018;2023-07-20T01:02:03;19.90;96.60
4556;DHT22;2290;48.674;9.018;2023-07-20T01:04:29;19.90;95.70
4556;DHT22;2290;48.674;9.018;2023-07-20T01:07:01;19.80;96.10
4556;DHT22;2290;48.674;9.018;2023-07-20T01:09:42;19.70;96.20
4556;DHT22;2290;48.674;9.018;2023-07-20T01:14:42;19.70;96.50
4556;DHT22;2290;48.674;9.018;2023-07-20T01:17:08;19.70;96.50
4556;DHT22;2290;48.674;9.018;2023-07-20T01:19:33;19.80;96.90
4556;DHT22;2290;48.674;9.018;2023-07-20T01:30:36;19.20;96.50
4556;DHT22;2290;48.674;9.018;2023-07-20T01:33:08;19.20;96.40
4556;DHT22;2290;48.674;9.018;2023-07-20T01:35:34;19.10;96.50
4556;DHT22;2290;48.674;9.018;2023-07-20T01:38:02;19.00;96.70
4556;DHT22;2290;48.674;9.018;2023-07-20T01:40:29;19.00;96.60
4556;DHT22;2290;48.674;9.018;2023-07-20T01:42:55;18.90;96.80
4556;DHT22;2290;48.674;9.018;2023-07-20T01:45:21;18.80;97.00
4556;DHT22;2290;48.674;9.018;2023-07-20T01:47:47;18.90;97.20
4556;DHT22;2290;48.674;9.018;2023-07-20T01:50:13;18.90;97.20
4556;DHT22;2290;48.674;9.018;2023-07-20T01:52:38;18.90;97.30
4556;DHT22;2290;48.674;9.018;2023-07-20T01:55:05;19.00;97.30
4556;DHT22;2290;48.674;9.018;2023-07-20T01:57:32;19.10;96.90
4556;DHT22;2290;48.674;9.018;2023-07-20T01:59:58;19.00;96.90
4556;DHT22;2290;48.674;9.018;2023-07-20T02:02:26;18.90;97.30
4556;DHT22;2290;48.674;9.018;2023-07-20T02:04:52;19.00;97.30
4556;DHT22;2290;48.674;9.018;2023-07-20T02:07:19;18.90;97.10
4556;DHT22;2290;48.674;9.018;2023-07-20T02:09:45;18.90;97.20
4556;DHT22;2290;48.674;9.018;2023-07-20T02:12:10;18.80;97.40
4556;DHT22;2290;48.674;9.018;2023-07-20T02:14:36;18.80;97.50
4556;DHT22;2290;48.674;9.018;2023-07-20T02:17:01;18.80;97.30
4556;DHT22;2290;48.674;9.018;2023-07-20T02:19:30;18.80;97.50
4556;DHT22;2290;48.674;9.018;2023-07-20T02:21:56;18.70;97.70
4556;DHT22;2290;48.674;9.018;2023-07-20T02:24:21;18.70;97.90
4556;DHT22;2290;48.674;9.018;2023-07-20T02:26:47;18.80;97.90
4556;DHT22;2290;48.674;9.018;2023-07-20T02:29:12;18.90;97.70
4556;DHT22;2290;48.674;9.018;2023-07-20T02:31:38;18.90;97.70
4556;DHT22;2290;48.674;9.018;2023-07-20T02:34:07;18.90;98.00
4556;DHT22;2290;48.674;9.018;2023-07-20T02:36:35;18.80;98.10
4556;DHT22;2290;48.674;9.018;2023-07-20T02:39:00;18.80;98.30
4556;DHT22;2290;48.674;9.018;2023-07-20T02:41:30;18.80;98.60
4556;DHT22;2290;48.674;9.018;2023-07-20T02:43:56;18.90;98.50
4556;DHT22;2290;48.674;9.018;2023-07-20T02:46:22;18.80;98.80
4556;DHT22;2290;48.674;9.018;2023-07-20T02:48:47;18.80;98.70
4556;DHT22;2290;48.674;9.018;2023-07-20T02:51:13;18.80;98.70
4556;DHT22;2290;48.674;9.018;2023-07-20T02:53:39;18.90;98.70
4556;DHT22;2290;48.674;9.018;2023-07-20T02:56:05;18.80;98.70
4556;DHT22;2290;48.674;9.018;2023-07-20T02:58:30;18.80;98.90
4556;DHT22;2290;48.674;9.018;2023-07-20T03:00:56;18.70;98.90
4556;DHT22;2290;48.674;9.018;2023-07-20T03:03:22;18.60;99.00
4556;DHT22;2290;48.674;9.018;2023-07-20T03:05:47;18.60;99.20
4556;DHT22;2290;48.674;9.018;2023-07-20T03:08:19;18.50;99.30
4556;DHT22;2290;48.674;9.018;2023-07-20T03:10:45;18.50;99.40
4556;DHT22;2290;48.674;9.018;2023-07-20T03:13:11;18.40;99.30
4556;DHT22;2290;48.674;9.018;2023-07-20T03:15:38;18.50;99.40
4556;DHT22;2290;48.674;9.018;2023-07-20T03:18:03;18.50;99.40
4556;DHT22;2290;48.674;9.018;2023-07-20T03:20:31;18.40;99.50
4556;DHT22;2290;48.674;9.018;2023-07-20T03:22:57;18.30;99.50
4556;DHT22;2290;48.674;9.018;2023-07-20T03:25:22;18.30;99.90
4556;DHT22;2290;48.674;9.018;2023-07-20T03:27:48;18.30;99.90
4556;DHT22;2290;48.674;9.018;2023-07-20T03:30:14;18.20;99.90
4556;DHT22;2290;48.674;9.018;2023-07-20T03:32:40;18.20;99.90
4556;DHT22;2290;48.674;9.018;2023-07-20T03:35:06;18.20;99.90
4556;DHT22;2290;48.674;9.018;2023-07-20T03:37:31;18.20;99.90
4556;DHT22;2290;48.674;9.018;2023-07-20T03:39:57;18.00;99.90
4556;DHT22;2290;48.674;9.018;2023-07-20T03:42:23;18.00;99.90
4556;DHT22;2290;48.674;9.018;2023-07-20T03:44:48;18.00;99.90
4556;DHT22;2290;48.674;9.018;2023-07-20T03:47:14;17.90;99.90
4556;DHT22;2290;48.674;9.018;2023-07-20T03:49:39;17.90;99.90
4556;DHT22;2290;48.674;9.018;2023-07-20T03:52:05;17.90;99.90
4556;DHT22;2290;48.674;9.018;2023-07-20T03:54:31;18.00;99.90
4556;DHT22;2290;48.674;9.018;2023-07-20T03:56:56;18.00;99.90
4556;DHT22;2290;48.674;9.018;2023-07-20T03:59:22;18.10;99.90
4556;DHT22;2290;48.674;9.018;2023-07-20T04:01:47;18.10;99.90
4556;DHT22;2290;48.674;9.018;2023-07-20T04:04:16;18.10;99.90
4556;DHT22;2290;48.674;9.018;2023-07-20T04:06:41;18.10;99.90
4556;DHT22;2290;48.674;9.018;2023-07-20T04:09:11;18.10;99.90
4556;DHT22;2290;48.674;9.018;2023-07-20T04:11:37;18.20;99.90
4556;DHT22;2290;48.674;9.018;2023-07-20T04:14:04;18.20;99.90
4556;DHT22;2290;48.674;9.018;2023-07-20T04:16:29;18.20;99.90
4556;DHT22;2290;48.674;9.018;2023-07-20T04:18:56;18.20;99.90
4556;DHT22;2290;48.674;9.018;2023-07-20T04:21:22;18.30;99.90
4556;DHT22;2290;48.674;9.018;2023-07-20T04:23:47;18.30;99.90
4556;DHT22;2290;48.674;9.018;2023-07-20T04:26:13;18.40;99.90
4556;DHT22;2290;48.674;9.018;2023-07-20T04:28:40;18.40;99.90
4556;DHT22;2290;48.674;9.018;2023-07-20T04:31:12;18.30;99.90
4556;DHT22;2290;48.674;9.018;2023-07-20T04:33:38;18.40;99.90
4556;DHT22;2290;48.674;9.018;2023-07-20T04:36:04;18.40;99.90
4556;DHT22;2290;48.674;9.018;2023-07-20T04:38:29;18.40;99.90
4556;DHT22;2290;48.674;9.018;2023-07-20T04:40:55;18.50;99.90
4556;DHT22;2290;48.674;9.018;2023-07-20T04:43:21;18.50;99.90
4556;DHT22;2290;48.674;9.018;2023-07-20T04:45:47;18.60;99.90
4556;DHT22;2290;48.674;9.018;2023-07-20T04:48:16;18.70;99.90
4556;DHT22;2290;48.674;9.018;2023-07-20T04:50:45;18.70;99.90
4556;DHT22;2290;48.674;9.018;2023-07-20T04:53:15;18.70;99.90
4556;DHT22;2290;48.674;9.018;2023-07-20T04:55:46;18.80;99.90
4556;DHT22;2290;48.674;9.018;2023-07-20T04:58:15;19.00;99.90
4556;DHT22;2290;48.674;9.018;2023-07-20T05:00:42;19.00;99.90
4556;DHT22;2290;48.674;9.018;2023-07-20T05:03:07;18.90;99.90
4556;DHT22;2290;48.674;9.018;2023-07-20T05:05:33;18.80;99.90
4556;DHT22;2290;48.674;9.018;2023-07-20T05:07:59;18.80;99.90
4556;DHT22;2290;48.674;9.018;2023-07-20T05:10:25;18.80;99.90
4556;DHT22;2290;48.674;9.018;2023-07-20T05:12:50;18.80;99.90
4556;DHT22;2290;48.674;9.018;2023-07-20T05:15:16;18.90;99.90
4556;DHT22;2290;48.674;9.018;2023-07-20T05:17:41;18.90;99.90
4556;DHT22;2290;48.674;9.018;2023-07-20T05:20:07;18.90;99.90
4556;DHT22;2290;48.674;9.018;2023-07-20T05:22:35;19.00;99.90
4556;DHT22;2290;48.674;9.018;2023-07-20T05:25:02;19.00;99.90
4556;DHT22;2290;48.674;9.018;2023-07-20T05:27:27;18.90;99.90
4556;DHT22;2290;48.674;9.018;2023-07-20T05:29:53;18.80;99.90
4556;DHT22;2290;48.674;9.018;2023-07-20T05:32:18;18.80;99.90
4556;DHT22;2290;48.674;9.018;2023-07-20T05:34:44;18.80;99.90
4556;DHT22;2290;48.674;9.018;2023-07-20T05:37:09;18.80;99.90
4556;DHT22;2290;48.674;9.018;2023-07-20T05:39:35;18.80;99.90
4556;DHT22;2290;48.674;9.018;2023-07-20T05:42:01;18.90;99.90
4556;DHT22;2290;48.674;9.018;2023-07-20T05:44:26;18.80;99.90
4556;DHT22;2290;48.674;9.018;2023-07-20T05:46:52;18.90;99.90
4556;DHT22;2290;48.674;9.018;2023-07-20T05:49:17;18.90;99.90
4556;DHT22;2290;48.674;9.018;2023-07-20T05:51:43;18.90;99.90
4556;DHT22;2290;48.674;9.018;2023-07-20T05:54:08;19.00;99.90
4556;DHT22;2290;48.674;9.018;2023-07-20T05:56:34;19.10;99.90
4556;DHT22;2290;48.674;9.018;2023-07-20T05:58:59;19.20;99.90
4556;DHT22;2290;48.674;9.018;2023-07-20T06:01:25;19.30;99.90
4556;DHT22;2290;48.674;9.018;2023-07-20T06:03:53;19.40;99.90
4556;DHT22;2290;48.674;9.018;2023-07-20T06:06:18;19.40;99.90
4556;DHT22;2290;48.674;9.018;2023-07-20T06:08:44;19.40;99.90
4556;DHT22;2290;48.674;9.018;2023-07-20T06:11:10;19.50;99.90
4556;DHT22;2290;48.674;9.018;2023-07-20T06:13:36;19.50;99.90
4556;DHT22;2290;48.674;9.018;2023-07-20T06:16:01;19.40;99.90
4556;DHT22;2290;48.674;9.018;2023-07-20T06:18:27;19.40;99.90
4556;DHT22;2290;48.674;9.018;2023-07-20T06:20:52;19.40;99.90
4556;DHT22;2290;48.674;9.018;2023-07-20T06:23:21;19.50;99.90
4556;DHT22;2290;48.674;9.018;2023-07-20T06:25:47;19.50;99.90
4556;DHT22;2290;48.674;9.018;2023-07-20T06:28:13;19.50;99.90
4556;DHT22;2290;48.674;9.018;2023-07-20T06:30:39;19.60;99.90
4556;DHT22;2290;48.674;9.018;2023-07-20T06:33:05;19.70;99.90
4556;DHT22;2290;48.674;9.018;2023-07-20T06:35:30;19.80;99.90
4556;DHT22;2290;48.674;9.018;2023-07-20T06:37:56;19.90;99.90
4556;DHT22;2290;48.674;9.018;2023-07-20T06:40:23;19.90;99.90
4556;DHT22;2290;48.674;9.018;2023-07-20T06:42:48;19.90;99.90
4556;DHT22;2290;48.674;9.018;2023-07-20T06:45:14;20.00;99.90
4556;DHT22;2290;48.674;9.018;2023-07-20T06:47:40;20.00;99.90
4556;DHT22;2290;48.674;9.018;2023-07-20T06:50:09;20.00;99.90
4556;DHT22;2290;48.674;9.018;2023-07-20T06:52:36;20.00;99.90
4556;DHT22;2290;48.674;9.018;2023-07-20T06:55:02;20.10;99.90
4556;DHT22;2290;48.674;9.018;2023-07-20T06:57:29;20.10;99.90
4556;DHT22;2290;48.674;9.018;2023-07-20T06:59:55;19.90;99.90
4556;DHT22;2290;48.674;9.018;2023-07-20T07:02:20;19.90;99.90
4556;DHT22;2290;48.674;9.018;2023-07-20T07:04:46;19.90;99.90
4556;DHT22;2290;48.674;9.018;2023-07-20T07:07:16;20.00;99.90
4556;DHT22;2290;48.674;9.018;2023-07-20T07:09:42;20.00;99.90
4556;DHT22;2290;48.674;9.018;2023-07-20T07:12:08;20.00;99.90
4556;DHT22;2290;48.674;9.018;2023-07-20T07:14:35;20.00;99.90
4556;DHT22;2290;48.674;9.018;2023-07-20T07:17:00;20.10;99.90
4556;DHT22;2290;48.674;9.018;2023-07-20T07:19:26;20.20;99.90
4556;DHT22;2290;48.674;9.018;2023-07-20T07:21:51;20.20;99.90
4556;DHT22;2290;48.674;9.018;2023-07-20T07:24:17;20.20;99.90
4556;DHT22;2290;48.674;9.018;2023-07-20T07:26:42;20.20;99.90
4556;DHT22;2290;48.674;9.018;2023-07-20T07:29:08;20.30;99.90
4556;DHT22;2290;48.674;9.018;2023-07-20T07:31:35;20.30;99.90
4556;DHT22;2290;48.674;9.018;2023-07-20T07:34:04;20.30;99.90
4556;DHT22;2290;48.674;9.018;2023-07-20T07:36:30;20.30;99.90
4556;DHT22;2290;48.674;9.018;2023-07-20T07:38:56;20.30;99.90
4556;DHT22;2290;48.674;9.018;2023-07-20T07:41:22;20.40;99.90
4556;DHT22;2290;48.674;9.018;2023-07-20T07:43:48;20.40;99.90
4556;DHT22;2290;48.674;9.018;2023-07-20T07:46:14;20.40;99.90
4556;DHT22;2290;48.674;9.018;2023-07-20T07:48:39;20.30;99.90
4556;DHT22;2290;48.674;9.018;2023-07-20T07:51:05;20.30;99.90
4556;DHT22;2290;48.674;9.018;2023-07-20T07:53:31;20.30;99.90
4556;DHT22;2290;48.674;9.018;2023-07-20T07:55:58;20.40;99.90
4556;DHT22;2290;48.674;9.018;2023-07-20T07:58:23;20.50;99.90
4556;DHT22;2290;48.674;9.018;2023-07-20T08:00:50;20.50;99.90
4556;DHT22;2290;48.674;9.018;2023-07-20T08:03:16;20.60;99.90
4556;DHT22;2290;48.674;9.018;2023-07-20T08:05:41;20.60;99.90
4556;DHT22;2290;48.674;9.018;2023-07-20T08:08:07;20.80;99.90
4556;DHT22;2290;48.674;9.018;2023-07-20T08:10:34;20.80;99.90
4556;DHT22;2290;48.674;9.018;2023-07-20T08:12:59;20.90;99.90
4556;DHT22;2290;48.674;9.018;2023-07-20T08:15:25;20.90;99.90
4556;DHT22;2290;48.674;9.018;2023-07-20T08:17:50;21.00;99.90
4556;DHT22;2290;48.674;9.018;2023-07-20T08:20:18;21.10;99.90
4556;DHT22;2290;48.674;9.018;2023-07-20T08:22:44;21.20;99.30
4556;DHT22;2290;48.674;9.018;2023-07-20T08:25:09;21.30;98.40
4556;DHT22;2290;48.674;9.018;2023-07-20T08:27:36;21.20;99.00
4556;DHT22;2290;48.674;9.018;2023-07-20T08:30:02;21.10;99.40
4556;DHT22;2290;48.674;9.018;2023-07-20T08:32:32;21.10;99.30
4556;DHT22;2290;48.674;9.018;2023-07-20T08:34:58;21.00;99.00
4556;DHT22;2290;48.674;9.018;2023-07-20T08:37:23;20.90;99.40
4556;DHT22;2290;48.674;9.018;2023-07-20T08:39:49;20.90;99.20
4556;DHT22;2290;48.674;9.018;2023-07-20T08:42:16;20.80;99.40
4556;DHT22;2290;48.674;9.018;2023-07-20T08:44:44;20.90;99.20
4556;DHT22;2290;48.674;9.018;2023-07-20T08:47:12;21.00;99.60
4556;DHT22;2290;48.674;9.018;2023-07-20T08:49:39;21.20;99.70
4556;DHT22;2290;48.674;9.018;2023-07-20T08:52:05;21.50;99.30
4556;DHT22;2290;48.674;9.018;2023-07-20T08:54:31;21.60;99.10
4556;DHT22;2290;48.674;9.018;2023-07-20T08:57:02;21.50;99.00
4556;DHT22;2290;48.674;9.018;2023-07-20T08:59:29;21.50;98.60
4556;DHT22;2290;48.674;9.018;2023-07-20T09:01:59;21.60;98.70
4556;DHT22;2290;48.674;9.018;2023-07-20T09:04:26;21.60;98.90
4556;DHT22;2290;48.674;9.018;2023-07-20T09:06:53;21.30;98.10
4556;DHT22;2290;48.674;9.018;2023-07-20T09:09:19;21.20;98.50
4556;DHT22;2290;48.674;9.018;2023-07-20T09:11:49;21.40;98.10
4556;DHT22;2290;48.674;9.018;2023-07-20T09:14:14;21.60;97.90
4556;DHT22;2290;48.674;9.018;2023-07-20T09:16:56;21.80;98.20
4556;DHT22;2290;48.674;9.018;2023-07-20T09:19:23;22.00;97.70
4556;DHT22;2290;48.674;9.018;2023-07-20T09:21:50;22.10;96.80
4556;DHT22;2290;48.674;9.018;2023-07-20T09:24:20;22.10;96.80
4556;DHT22;2290;48.674;9.018;2023-07-20T09:26:47;22.00;96.90
4556;DHT22;2290;48.674;9.018;2023-07-20T09:29:20;22.00;96.20
4556;DHT22;2290;48.674;9.018;2023-07-20T09:32:04;21.90;96.10
4556;DHT22;2290;48.674;9.018;2023-07-20T09:34:31;21.90;96.10
4556;DHT22;2290;48.674;9.018;2023-07-20T09:37:01;22.10;95.90
4556;DHT22;2290;48.674;9.018;2023-07-20T09:39:27;22.10;95.30
4556;DHT22;2290;48.674;9.018;2023-07-20T09:42:00;22.10;95.50
4556;DHT22;2290;48.674;9.018;2023-07-20T09:44:28;22.10;95.80
4556;DHT22;2290;48.674;9.018;2023-07-20T09:46:54;22.10;95.50
4556;DHT22;2290;48.674;9.018;2023-07-20T09:49:22;22.30;95.60
4556;DHT22;2290;48.674;9.018;2023-07-20T09:51:48;22.50;95.00
4556;DHT22;2290;48.674;9.018;2023-07-20T09:54:14;22.60;94.40
4556;DHT22;2290;48.674;9.018;2023-07-20T09:56:42;22.90;94.20
4556;DHT22;2290;48.674;9.018;2023-07-20T09:59:09;23.10;93.50
4556;DHT22;2290;48.674;9.018;2023-07-20T10:01:35;23.50;92.50
4556;DHT22;2290;48.674;9.018;2023-07-20T10:04:04;23.60;92.80
4556;DHT22;2290;48.674;9.018;2023-07-20T10:06:33;23.80;92.30
4556;DHT22;2290;48.674;9.018;2023-07-20T10:09:03;23.90;91.70
4556;DHT22;2290;48.674;9.018;2023-07-20T10:11:31;23.80;92.60
4556;DHT22;2290;48.674;9.018;2023-07-20T10:13:59;23.60;92.90
4556;DHT22;2290;48.674;9.018;2023-07-20T10:16:34;23.20;93.10
4556;DHT22;2290;48.674;9.018;2023-07-20T10:19:17;23.20;93.50
4556;DHT22;2290;48.674;9.018;2023-07-20T10:21:54;23.40;92.70
4556;DHT22;2290;48.674;9.018;2023-07-20T10:24:23;23.60;92.30
4556;DHT22;2290;48.674;9.018;2023-07-20T10:26:51;23.90;92.00
4556;DHT22;2290;48.674;9.018;2023-07-20T10:29:17;23.70;91.20
4556;DHT22;2290;48.674;9.018;2023-07-20T10:31:44;23.80;91.80
4556;DHT22;2290;48.674;9.018;2023-07-20T10:34:10;24.00;91.20
4556;DHT22;2290;48.674;9.018;2023-07-20T10:36:44;24.20;90.70
4556;DHT22;2290;48.674;9.018;2023-07-20T10:39:24;24.20;90.90
4556;DHT22;2290;48.674;9.018;2023-07-20T10:42:09;24.40;90.30
4556;DHT22;2290;48.674;9.018;2023-07-20T10:44:37;24.70;90.00
4556;DHT22;2290;48.674;9.018;2023-07-20T10:47:13;24.70;88.50
4556;DHT22;2290;48.674;9.018;2023-07-20T10:49:58;24.40;90.30
4556;DHT22;2290;48.674;9.018;2023-07-20T10:52:26;24.10;90.60
4556;DHT22;2290;48.674;9.018;2023-07-20T10:55:19;24.00;90.70
4556;DHT22;2290;48.674;9.018;2023-07-20T10:58:11;23.90;91.10
4556;DHT22;2290;48.674;9.018;2023-07-20T11:01:01;23.90;90.20
4556;DHT22;2290;48.674;9.018;2023-07-20T11:03:31;23.90;90.40
4556;DHT22;2290;48.674;9.018;2023-07-20T11:05:58;23.90;90.40
4556;DHT22;2290;48.674;9.018;2023-07-20T11:08:43;23.80;90.10
4556;DHT22;2290;48.674;9.018;2023-07-20T11:11:29;23.80;89.00
4556;DHT22;2290;48.674;9.018;2023-07-20T11:14:05;24.00;89.30
4556;DHT22;2290;48.674;9.018;2023-07-20T11:16:52;24.30;88.80
4556;DHT22;2290;48.674;9.018;2023-07-20T11:22:00;25.00;86.30
4556;DHT22;2290;48.674;9.018;2023-07-20T11:24:31;25.30;85.50
4556;DHT22;2290;48.674;9.018;2023-07-20T11:26:57;25.20;84.00
4556;DHT22;2290;48.674;9.018;2023-07-20T11:29:23;24.90;84.30
4556;DHT22;2290;48.674;9.018;2023-07-20T11:31:52;24.90;87.10
4556;DHT22;2290;48.674;9.018;2023-07-20T11:34:20;24.90;86.00
4556;DHT22;2290;48.674;9.018;2023-07-20T11:36:50;24.70;84.40
4556;DHT22;2290;48.674;9.018;2023-07-20T11:39:19;24.20;85.90
4556;DHT22;2290;48.674;9.018;2023-07-20T11:41:53;24.20;87.70
4556;DHT22;2290;48.674;9.018;2023-07-20T11:44:20;24.50;86.70
4556;DHT22;2290;48.674;9.018;2023-07-20T11:47:05;24.70;84.80
4556;DHT22;2290;48.674;9.018;2023-07-20T11:49:37;25.20;86.40
4556;DHT22;2290;48.674;9.018;2023-07-20T11:52:09;25.60;84.30
4556;DHT22;2290;48.674;9.018;2023-07-20T11:54:37;25.70;82.60
4556;DHT22;2290;48.674;9.018;2023-07-20T11:57:04;25.60;83.90
4556;DHT22;2290;48.674;9.018;2023-07-20T11:59:30;25.70;84.10
4556;DHT22;2290;48.674;9.018;2023-07-20T12:01:57;25.90;83.70
4556;DHT22;2290;48.674;9.018;2023-07-20T12:04:23;26.30;84.00
4556;DHT22;2290;48.674;9.018;2023-07-20T12:06:49;26.40;83.30
4556;DHT22;2290;48.674;9.018;2023-07-20T12:09:16;26.40;82.40
4556;DHT22;2290;48.674;9.018;2023-07-20T12:11:44;26.40;83.10
4556;DHT22;2290;48.674;9.018;2023-07-20T12:14:12;26.40;81.50
4556;DHT22;2290;48.674;9.018;2023-07-20T12:16:38;26.50;80.20
4556;DHT22;2290;48.674;9.018;2023-07-20T12:19:08;26.40;80.40
4556;DHT22;2290;48.674;9.018;2023-07-20T12:21:36;26.30;80.20
4556;DHT22;2290;48.674;9.018;2023-07-20T12:24:03;25.90;79.50
4556;DHT22;2290;48.674;9.018;2023-07-20T12:26:30;25.60;80.60
4556;DHT22;2290;48.674;9.018;2023-07-20T12:28:56;25.50;80.40
4556;DHT22;2290;48.674;9.018;2023-07-20T12:31:22;25.50;81.10
4556;DHT22;2290;48.674;9.018;2023-07-20T12:33:50;25.70;81.20
4556;DHT22;2290;48.674;9.018;2023-07-20T12:36:15;25.90;80.90
4556;DHT22;2290;48.674;9.018;2023-07-20T12:38:41;26.30;81.90
4556;DHT22;2290;48.674;9.018;2023-07-20T12:41:09;26.50;80.40
4556;DHT22;2290;48.674;9.018;2023-07-20T12:43:37;26.90;79.80
4556;DHT22;2290;48.674;9.018;2023-07-20T12:46:03;27.40;79.10
4556;DHT22;2290;48.674;9.018;2023-07-20T12:48:29;27.70;77.70
4556;DHT22;2290;48.674;9.018;2023-07-20T12:50:56;28.00;77.50
4556;DHT22;2290;48.674;9.018;2023-07-20T12:53:22;28.20;78.20
4556;DHT22;2290;48.674;9.018;2023-07-20T12:55:47;28.30;76.00
4556;DHT22;2290;48.674;9.018;2023-07-20T12:58:13;28.20;74.20
4556;DHT22;2290;48.674;9.018;2023-07-20T13:00:39;28.10;74.90
4556;DHT22;2290;48.674;9.018;2023-07-20T13:03:05;28.10;74.80
4556;DHT22;2290;48.674;9.018;2023-07-20T13:05:32;28.10;73.00
4556;DHT22;2290;48.674;9.018;2023-07-20T13:07:58;28.30;73.70
4556;DHT22;2290;48.674;9.018;2023-07-20T13:10:24;28.30;72.60
4556;DHT22;2290;48.674;9.018;2023-07-20T13:12:50;28.20;71.90
4556;DHT22;2290;48.674;9.018;2023-07-20T13:15:16;28.30;71.80
4556;DHT22;2290;48.674;9.018;2023-07-20T13:17:42;28.30;73.10
4556;DHT22;2290;48.674;9.018;2023-07-20T13:20:09;28.40;74.40
4556;DHT22;2290;48.674;9.018;2023-07-20T13:22:37;28.70;73.80
4556;DHT22;2290;48.674;9.018;2023-07-20T13:25:02;28.90;73.50
4556;DHT22;2290;48.674;9.018;2023-07-20T13:27:28;29.10;72.30
4556;DHT22;2290;48.674;9.018;2023-07-20T13:29:55;28.70;70.60
4556;DHT22;2290;48.674;9.018;2023-07-20T13:32:22;28.50;71.80
4556;DHT22;2290;48.674;9.018;2023-07-20T13:34:48;28.40;71.30
4556;DHT22;2290;48.674;9.018;2023-07-20T13:37:13;28.50;73.50
4556;DHT22;2290;48.674;9.018;2023-07-20T13:39:41;28.80;73.50
4556;DHT22;2290;48.674;9.018;2023-07-20T13:42:07;29.00;71.90
4556;DHT22;2290;48.674;9.018;2023-07-20T13:44:34;28.90;69.70
4556;DHT22;2290;48.674;9.018;2023-07-20T13:47:00;28.70;71.30
4556;DHT22;2290;48.674;9.018;2023-07-20T13:49:27;28.80;70.20
4556;DHT22;2290;48.674;9.018;2023-07-20T13:51:53;28.70;70.70
4556;DHT22;2290;48.674;9.018;2023-07-20T13:54:18;28.50;69.10
4556;DHT22;2290;48.674;9.018;2023-07-20T13:56:44;28.00;71.00
4556;DHT22;2290;48.674;9.018;2023-07-20T13:59:10;27.80;71.40
4556;DHT22;2290;48.674;9.018;2023-07-20T14:01:36;27.80;71.50
4556;DHT22;2290;48.674;9.018;2023-07-20T14:04:02;27.90;71.30
4556;DHT22;2290;48.674;9.018;2023-07-20T14:06:31;28.10;71.80
4556;DHT22;2290;48.674;9.018;2023-07-20T14:08:57;28.40;69.70
4556;DHT22;2290;48.674;9.018;2023-07-20T14:11:23;28.50;71.00
4556;DHT22;2290;48.674;9.018;2023-07-20T14:13:54;28.70;70.50
4556;DHT22;2290;48.674;9.018;2023-07-20T14:16:21;28.80;69.70
4556;DHT22;2290;48.674;9.018;2023-07-20T14:18:47;28.60;68.60
4556;DHT22;2290;48.674;9.018;2023-07-20T14:21:17;28.60;70.50
4556;DHT22;2290;48.674;9.018;2023-07-20T14:23:48;28.70;70.80
4556;DHT22;2290;48.674;9.018;2023-07-20T14:26:15;28.90;70.30
4556;DHT22;2290;48.674;9.018;2023-07-20T14:28:40;29.00;70.70
4556;DHT22;2290;48.674;9.018;2023-07-20T14:31:06;29.20;70.00
4556;DHT22;2290;48.674;9.018;2023-07-20T14:33:32;29.30;69.00
4556;DHT22;2290;48.674;9.018;2023-07-20T14:35:59;29.30;69.50
4556;DHT22;2290;48.674;9.018;2023-07-20T14:38:27;29.40;68.30
4556;DHT22;2290;48.674;9.018;2023-07-20T14:40:53;29.50;70.90
4556;DHT22;2290;48.674;9.018;2023-07-20T14:43:19;29.80;69.10
4556;DHT22;2290;48.674;9.018;2023-07-20T14:45:45;29.90;68.60
4556;DHT22;2290;48.674;9.018;2023-07-20T14:48:11;29.90;69.40
4556;DHT22;2290;48.674;9.018;2023-07-20T14:50:37;29.70;66.50
4556;DHT22;2290;48.674;9.018;2023-07-20T14:53:04;29.40;67.90
4556;DHT22;2290;48.674;9.018;2023-07-20T14:55:30;29.40;67.80
4556;DHT22;2290;48.674;9.018;2023-07-20T14:57:57;29.40;69.10
4556;DHT22;2290;48.674;9.018;2023-07-20T15:00:22;29.40;68.20
4556;DHT22;2290;48.674;9.018;2023-07-20T15:02:48;29.40;68.70
4556;DHT22;2290;48.674;9.018;2023-07-20T15:05:23;29.20;68.20
4556;DHT22;2290;48.674;9.018;2023-07-20T15:07:50;28.80;68.50
4556;DHT22;2290;48.674;9.018;2023-07-20T15:10:16;28.50;69.30
4556;DHT22;2290;48.674;9.018;2023-07-20T15:12:41;28.40;69.30
4556;DHT22;2290;48.674;9.018;2023-07-20T15:15:13;28.40;70.60
4556;DHT22;2290;48.674;9.018;2023-07-20T15:17:42;28.20;70.40
4556;DHT22;2290;48.674;9.018;2023-07-20T15:20:14;28.20;70.40
4556;DHT22;2290;48.674;9.018;2023-07-20T15:22:41;28.10;70.60
4556;DHT22;2290;48.674;9.018;2023-07-20T15:25:09;28.10;72.10
4556;DHT22;2290;48.674;9.018;2023-07-20T15:27:39;28.20;71.40
4556;DHT22;2290;48.674;9.018;2023-07-20T15:30:07;28.20;69.80
4556;DHT22;2290;48.674;9.018;2023-07-20T15:32:32;28.30;70.20
4556;DHT22;2290;48.674;9.018;2023-07-20T15:34:58;28.60;70.50
4556;DHT22;2290;48.674;9.018;2023-07-20T15:37:24;28.90;69.70
4556;DHT22;2290;48.674;9.018;2023-07-20T15:39:50;29.10;70.20
4556;DHT22;2290;48.674;9.018;2023-07-20T15:42:15;29.30;68.00
4556;DHT22;2290;48.674;9.018;2023-07-20T15:44:41;29.40;68.60
4556;DHT22;2290;48.674;9.018;2023-07-20T15:47:07;29.40;67.90
4556;DHT22;2290;48.674;9.018;2023-07-20T15:49:33;29.30;67.90
4556;DHT22;2290;48.674;9.018;2023-07-20T15:52:01;29.30;69.10
4556;DHT22;2290;48.674;9.018;2023-07-20T15:54:27;29.40;68.20
4556;DHT22;2290;48.674;9.018;2023-07-20T15:56:52;29.60;69.00
4556;DHT22;2290;48.674;9.018;2023-07-20T15:59:19;29.50;68.20
4556;DHT22;2290;48.674;9.018;2023-07-20T16:01:44;29.50;68.50
4556;DHT22;2290;48.674;9.018;2023-07-20T16:04:12;29.50;68.00
4556;DHT22;2290;48.674;9.018;2023-07-20T16:06:39;29.60;68.50
4556;DHT22;2290;48.674;9.018;2023-07-20T16:09:05;29.70;68.60
4556;DHT22;2290;48.674;9.018;2023-07-20T16:11:33;29.90;68.30
4556;DHT22;2290;48.674;9.018;2023-07-20T16:13:59;29.90;67.10
4556;DHT22;2290;48.674;9.018;2023-07-20T16:16:25;29.70;65.90